createdAt,value
2023-03-20T00:02:00.396Z,22.70
2023-03-20T00:04:27.137Z,28.25
2023-03-20T00:06:53.738Z,22.27
2023-03-20T00:09:20.420Z,23.30
2023-03-20T00:11:51.377Z,23.83
2023-03-20T00:14:20.234Z,23.25
2023-03-20T00:16:48.883Z,23.85
2023-03-20T00:19:18.656Z,25.45
2023-03-20T00:21:47.611Z,20.05
2023-03-20T00:24:15.881Z,19.02
2023-03-20T00:26:44.155Z,18.77
2023-03-20T00:29:30.872Z,20.85
2023-03-20T00:31:58.429Z,27.35
2023-03-20T00:34:29.024Z,23.38
2023-03-20T00:36:56.417Z,25.13
2023-03-20T00:39:23.790Z,22.75
2023-03-20T00:41:54.418Z,24.75
2023-03-20T00:44:35.696Z,22.55
2023-03-20T00:47:13.524Z,29.65
2023-03-20T00:49:40.394Z,24.17
2023-03-20T00:52:09.053Z,20.92
2023-03-20T00:54:36.251Z,20.48
2023-03-20T00:57:06.916Z,16.52
2023-03-20T00:59:37.528Z,21.60
2023-03-20T01:02:05.109Z,21.58
2023-03-20T01:04:36.411Z,27.58
2023-03-20T01:07:03.479Z,19.23
2023-03-20T01:09:30.092Z,22.30
2023-03-20T01:11:56.937Z,26.33
2023-03-20T01:14:23.953Z,27.83
2023-03-20T01:16:50.699Z,25.15
2023-03-20T01:19:17.808Z,21.17
2023-03-20T01:21:44.585Z,23.33
2023-03-20T01:24:11.261Z,27.73
2023-03-20T01:26:43.239Z,20.83
2023-03-20T01:29:24.627Z,17.50
2023-03-20T01:31:52.777Z,24.55
2023-03-20T01:34:21.018Z,26.13
2023-03-20T01:36:57.162Z,19.48
2023-03-20T01:39:31.852Z,31.75
2023-03-20T01:41:59.511Z,19.75
2023-03-20T01:44:34.170Z,19.15
2023-03-20T01:47:03.382Z,20.50
2023-03-20T01:49:57.448Z,25.10
2023-03-20T01:52:24.171Z,21.95
2023-03-20T01:54:50.899Z,17.90
2023-03-20T01:57:24.610Z,19.70
2023-03-20T02:00:01.696Z,18.02
2023-03-20T02:02:31.447Z,18.05
2023-03-20T02:05:06.320Z,22.25
2023-03-20T02:07:35.796Z,24.25
2023-03-20T02:10:05.773Z,21.88
2023-03-20T02:12:34.733Z,22.60
2023-03-20T02:15:01.705Z,19.10
2023-03-20T02:17:28.594Z,22.25
2023-03-20T02:20:26.151Z,19.60
2023-03-20T02:23:31.201Z,20.92
2023-03-20T02:26:24.237Z,22.23
2023-03-20T02:32:29.849Z,25.80
2023-03-20T02:35:48.368Z,22.67
2023-03-20T02:38:58.453Z,20.77
2023-03-20T02:41:43.805Z,20.60
2023-03-20T02:44:27.832Z,25.67
2023-03-20T02:47:10.330Z,23.17
2023-03-20T02:50:06.358Z,18.48
2023-03-20T02:53:18.074Z,22.45
2023-03-20T02:56:25.127Z,26.60
2023-03-20T02:59:02.657Z,22.10
2023-03-20T03:01:39.686Z,20.52
2023-03-20T03:04:14.352Z,18.48
2023-03-20T03:06:46.068Z,20.10
2023-03-20T03:09:35.878Z,26.30
2023-03-20T03:12:07.985Z,20.88
2023-03-20T03:14:43.757Z,18.10
2023-03-20T03:17:13.403Z,23.27
2023-03-20T03:19:46.393Z,19.17
2023-03-20T03:22:13.009Z,1999.90
2023-03-20T03:24:45.281Z,1999.90
2023-03-20T03:27:37.756Z,1999.90
2023-03-20T03:30:18.539Z,490.13
2023-03-20T03:32:49.574Z,140.27
2023-03-20T03:35:22.023Z,56.92
2023-03-20T03:38:19.192Z,35.85
2023-03-20T03:41:31.260Z,23.38
2023-03-20T03:44:23.117Z,23.30
2023-03-20T03:46:57.790Z,24.23
2023-03-20T03:49:29.226Z,20.80
2023-03-20T03:52:01.339Z,20.75
2023-03-20T03:54:36.768Z,15.60
2023-03-20T03:57:05.970Z,18.63
2023-03-20T03:59:42.376Z,19.77
2023-03-20T04:02:10.583Z,15.65
2023-03-20T04:04:42.638Z,19.55
2023-03-20T04:07:09.315Z,16.33
2023-03-20T04:09:35.995Z,21.35
2023-03-20T04:12:02.884Z,15.52
2023-03-20T04:14:29.511Z,20.42
2023-03-20T04:16:56.170Z,19.92
2023-03-20T04:19:22.796Z,17.00
2023-03-20T04:21:49.451Z,22.30
2023-03-20T04:24:16.336Z,18.88
2023-03-20T04:26:43.265Z,22.58
2023-03-20T04:29:10.407Z,21.58
2023-03-20T04:31:37.123Z,25.80
2023-03-20T04:34:03.842Z,19.35
2023-03-20T04:36:30.434Z,20.92
2023-03-20T04:38:57.754Z,18.80
2023-03-20T04:41:24.439Z,23.38
2023-03-20T04:43:51.061Z,18.17
2023-03-20T04:46:17.797Z,20.58
2023-03-20T04:48:44.416Z,23.65
2023-03-20T04:51:11.332Z,20.27
2023-03-20T04:53:38.482Z,22.13
2023-03-20T04:56:05.751Z,22.30
2023-03-20T04:58:32.416Z,16.80
2023-03-20T05:00:59.072Z,19.27
2023-03-20T05:03:27.575Z,18.52
2023-03-20T05:05:54.217Z,18.30
2023-03-20T05:08:21.136Z,21.27
2023-03-20T05:10:47.792Z,22.08
2023-03-20T05:13:14.429Z,23.80
2023-03-20T05:15:41.087Z,19.50
2023-03-20T05:18:08.204Z,22.27
2023-03-20T05:20:34.839Z,22.02
2023-03-20T05:23:01.467Z,21.30
2023-03-20T05:25:28.149Z,21.48
2023-03-20T05:27:55.018Z,21.23
2023-03-20T05:30:21.688Z,22.42
2023-03-20T05:32:52.743Z,23.58
2023-03-20T05:35:19.981Z,19.58
2023-03-20T05:37:46.647Z,21.42
2023-03-20T05:40:15.931Z,21.83
2023-03-20T05:42:42.575Z,21.13
2023-03-20T05:45:09.798Z,23.67
2023-03-20T05:47:36.422Z,24.63
2023-03-20T05:50:04.354Z,23.83
2023-03-20T05:52:31.180Z,27.67
2023-03-20T05:54:57.830Z,22.75
2023-03-20T05:57:24.592Z,25.00
2023-03-20T05:59:51.386Z,24.70
2023-03-20T06:02:18.077Z,23.38
2023-03-20T06:04:44.784Z,27.95
2023-03-20T06:07:12.864Z,23.90
2023-03-20T06:09:39.521Z,21.40
2023-03-20T06:12:06.817Z,25.40
2023-03-20T06:14:33.525Z,26.13
2023-03-20T06:17:00.855Z,24.42
2023-03-20T06:19:27.520Z,22.55
2023-03-20T06:21:54.213Z,24.30
2023-03-20T06:24:20.984Z,26.17
2023-03-20T06:26:47.625Z,25.10
2023-03-20T06:29:14.469Z,24.55
2023-03-20T06:31:42.431Z,20.25
2023-03-20T06:34:09.083Z,23.88
2023-03-20T06:36:35.808Z,20.83
2023-03-20T06:39:03.412Z,19.92
2023-03-20T06:41:34.522Z,22.23
2023-03-20T06:44:02.579Z,22.53
2023-03-20T06:46:29.231Z,24.52
2023-03-20T06:48:55.940Z,24.67
2023-03-20T06:51:22.764Z,23.05
2023-03-20T06:53:49.426Z,20.35
2023-03-20T06:56:16.903Z,21.27
2023-03-20T06:58:43.623Z,18.50
2023-03-20T07:01:15.845Z,15.48
2023-03-20T07:03:42.761Z,14.70
2023-03-20T07:06:09.785Z,16.55
2023-03-20T07:08:36.884Z,22.60
2023-03-20T07:11:04.311Z,19.65
2023-03-20T07:13:32.620Z,15.10
2023-03-20T07:16:04.983Z,15.45
2023-03-20T07:18:32.429Z,15.52
2023-03-20T07:21:05.225Z,17.85
2023-03-20T07:23:34.421Z,17.30
2023-03-20T07:26:01.241Z,15.85
2023-03-20T07:28:27.999Z,13.18
2023-03-20T07:30:55.696Z,15.45
2023-03-20T07:33:22.363Z,18.10
2023-03-20T07:35:53.803Z,13.00
2023-03-20T07:38:21.399Z,16.95
2023-03-20T07:40:49.006Z,15.70
2023-03-20T07:43:16.720Z,17.38
2023-03-20T07:45:43.680Z,13.95
2023-03-20T07:48:10.513Z,15.07
2023-03-20T07:50:37.282Z,15.35
2023-03-20T07:53:03.917Z,10.77
2023-03-20T07:55:30.692Z,14.48
2023-03-20T07:57:57.336Z,11.57
2023-03-20T08:00:25.578Z,10.52
2023-03-20T08:02:53.525Z,12.25
2023-03-20T08:05:20.467Z,12.18
2023-03-20T08:07:47.125Z,12.20
2023-03-20T08:10:14.112Z,10.60
2023-03-20T08:12:40.752Z,11.88
2023-03-20T08:15:08.297Z,8.48
2023-03-20T08:17:34.960Z,12.05
2023-03-20T08:20:01.810Z,13.93
2023-03-20T08:22:28.460Z,11.32
2023-03-20T08:24:55.133Z,9.32
2023-03-20T08:27:21.862Z,12.43
2023-03-20T08:29:48.536Z,12.55
2023-03-20T08:32:15.188Z,11.85
2023-03-20T08:34:41.957Z,12.45
2023-03-20T08:37:08.595Z,11.65
2023-03-20T08:39:35.860Z,11.93
2023-03-20T08:42:02.510Z,11.18
2023-03-20T08:44:29.276Z,12.70
2023-03-20T08:46:56.539Z,13.45
2023-03-20T08:49:23.245Z,11.15
2023-03-20T08:51:49.962Z,10.75
2023-03-20T08:54:18.582Z,12.55
2023-03-20T08:56:46.076Z,11.38
2023-03-20T08:59:12.868Z,11.13
2023-03-20T09:01:49.397Z,14.25
2023-03-20T09:04:17.138Z,13.40
2023-03-20T09:06:43.856Z,12.68
2023-03-20T09:09:10.674Z,12.18
2023-03-20T09:11:37.592Z,15.90
2023-03-20T09:14:04.210Z,13.23
2023-03-20T09:16:31.032Z,17.48
2023-03-20T09:18:57.791Z,10.68
2023-03-20T09:21:24.455Z,11.10
2023-03-20T09:23:51.068Z,12.05
2023-03-20T09:26:17.828Z,11.15
2023-03-20T09:28:44.449Z,9.32
2023-03-20T09:31:12.072Z,14.15
2023-03-20T09:33:38.930Z,10.13
2023-03-20T09:36:07.905Z,9.93
2023-03-20T09:38:34.625Z,10.27
2023-03-20T09:41:02.930Z,13.65
2023-03-20T09:43:55.091Z,9.18
2023-03-20T09:47:19.753Z,11.30
2023-03-20T09:50:35.425Z,8.98
2023-03-20T09:53:13.561Z,8.98
2023-03-20T09:55:42.973Z,10.77
2023-03-20T09:58:14.107Z,12.82
2023-03-20T10:00:44.210Z,8.27
2023-03-20T10:03:42.148Z,11.75
2023-03-20T10:06:16.920Z,11.30
2023-03-20T10:08:44.110Z,11.00
2023-03-20T10:15:09.049Z,8.90
2023-03-20T10:21:05.608Z,8.23
2023-03-20T10:23:41.138Z,11.15
2023-03-20T10:26:17.939Z,6.95
2023-03-20T10:29:07.983Z,8.18
2023-03-20T10:32:04.570Z,8.57
2023-03-20T10:35:17.723Z,8.55
2023-03-20T10:43:57.191Z,5.30
2023-03-20T10:46:29.700Z,8.85
2023-03-20T10:51:46.380Z,7.88
2023-03-20T10:54:24.082Z,9.18
2023-03-20T10:56:55.879Z,9.77
2023-03-20T10:59:27.582Z,9.35
2023-03-20T11:01:54.815Z,5.67
2023-03-20T11:04:21.762Z,8.35
2023-03-20T11:07:15.238Z,7.05
2023-03-20T11:09:41.814Z,8.45
2023-03-20T11:12:18.056Z,7.32
2023-03-20T11:14:44.741Z,5.82
2023-03-20T11:17:12.260Z,6.43
2023-03-20T11:19:41.675Z,7.32
2023-03-20T11:22:26.326Z,5.57
2023-03-20T11:24:56.326Z,8.30
2023-03-20T11:27:31.530Z,6.40
2023-03-20T11:30:00.239Z,6.28
2023-03-20T11:32:47.615Z,7.78
2023-03-20T11:35:44.889Z,6.47
2023-03-20T11:38:21.140Z,6.63
2023-03-20T11:40:49.448Z,7.18
2023-03-20T11:43:24.741Z,5.63
2023-03-20T11:45:57.002Z,7.25
2023-03-20T11:48:37.304Z,5.80
2023-03-20T11:51:12.367Z,6.47
2023-03-20T11:53:41.882Z,6.75
2023-03-20T11:56:20.749Z,7.10
2023-03-20T11:59:24.106Z,6.70
2023-03-20T12:01:53.724Z,7.68
2023-03-20T12:04:27.799Z,7.85
2023-03-20T12:07:00.999Z,7.35
2023-03-20T12:09:58.223Z,6.32
2023-03-20T12:12:41.177Z,6.30
2023-03-20T12:15:37.058Z,8.43
2023-03-20T12:18:15.648Z,7.63
2023-03-20T12:20:54.694Z,5.05
2023-03-20T12:24:01.301Z,6.47
2023-03-20T12:26:45.234Z,5.38
2023-03-20T12:29:38.149Z,5.13
2023-03-20T12:32:14.789Z,5.55
2023-03-20T12:34:46.956Z,4.80
2023-03-20T12:37:18.216Z,4.70
2023-03-20T12:39:53.582Z,4.95
2023-03-20T12:43:02.208Z,6.20
2023-03-20T12:45:38.118Z,3.67
2023-03-20T12:48:18.320Z,9.18
2023-03-20T12:51:00.473Z,5.68
2023-03-20T12:53:43.526Z,4.75
2023-03-20T12:56:56.532Z,4.93
2023-03-20T13:00:16.505Z,7.97
2023-03-20T13:03:01.772Z,5.72
2023-03-20T13:06:06.823Z,8.00
2023-03-20T13:09:08.706Z,5.93
2023-03-20T13:12:08.198Z,5.18
2023-03-20T13:15:24.229Z,5.07
2023-03-20T13:18:30.195Z,6.07
2023-03-20T13:21:00.751Z,4.45
2023-03-20T13:23:46.448Z,7.43
2023-03-20T13:26:49.278Z,5.57
2023-03-20T13:29:47.171Z,5.10
2023-03-20T13:32:27.444Z,5.35
2023-03-20T13:35:34.745Z,6.25
2023-03-20T13:38:09.749Z,5.18
2023-03-20T13:40:43.982Z,6.82
2023-03-20T13:43:19.086Z,7.70
2023-03-20T13:45:46.421Z,7.75
2023-03-20T13:48:45.589Z,5.32
2023-03-20T13:51:38.686Z,8.05
2023-03-20T13:54:23.644Z,7.40
2023-03-20T13:57:28.850Z,6.82
2023-03-20T14:00:21.760Z,7.22
2023-03-20T14:03:11.476Z,5.63
2023-03-20T14:05:41.062Z,5.85
2023-03-20T14:08:33.795Z,5.82
2023-03-20T14:11:35.279Z,7.38
2023-03-20T14:14:27.617Z,8.82
2023-03-20T14:17:22.439Z,7.35
2023-03-20T14:19:50.798Z,15.00
2023-03-20T14:22:30.459Z,8.25
2023-03-20T14:25:00.319Z,9.55
2023-03-20T14:27:43.455Z,7.88
2023-03-20T14:30:32.352Z,9.43
2023-03-20T14:33:26.898Z,8.13
2023-03-20T14:36:45.006Z,5.80
2023-03-20T14:39:53.005Z,6.57
2023-03-20T14:42:57.185Z,6.05
2023-03-20T14:45:38.000Z,6.28
2023-03-20T14:48:17.739Z,5.70
2023-03-20T14:51:03.042Z,7.07
2023-03-20T14:53:32.825Z,10.00
2023-03-20T14:56:08.137Z,6.85
2023-03-20T14:59:00.293Z,11.25
2023-03-20T15:02:12.943Z,4.88
2023-03-20T15:04:42.121Z,6.82
2023-03-20T15:07:20.704Z,9.65
2023-03-20T15:09:51.014Z,7.30
2023-03-20T15:12:23.566Z,5.60
2023-03-20T15:14:58.304Z,7.18
2023-03-20T15:17:36.379Z,7.15
2023-03-20T15:20:29.378Z,6.68
2023-03-20T15:23:01.038Z,7.38
2023-03-20T15:25:39.809Z,6.32
2023-03-20T15:28:07.987Z,10.40
2023-03-20T15:30:38.968Z,7.68
2023-03-20T15:33:08.252Z,8.45
2023-03-20T15:35:35.018Z,6.53
2023-03-20T15:38:07.528Z,6.53
2023-03-20T15:40:50.568Z,5.45
2023-03-20T15:43:20.073Z,9.93
2023-03-20T15:45:46.861Z,8.23
2023-03-20T15:48:18.895Z,9.15
2023-03-20T15:50:54.850Z,9.75
2023-03-20T15:53:29.170Z,7.82
2023-03-20T15:56:19.241Z,9.35
2023-03-20T15:58:49.513Z,5.93
2023-03-20T16:01:19.248Z,6.53
2023-03-20T16:03:46.439Z,7.07
2023-03-20T16:06:16.521Z,8.57
2023-03-20T16:08:45.700Z,7.00
2023-03-20T16:11:15.513Z,12.07
2023-03-20T16:13:47.102Z,6.07
2023-03-20T16:16:17.538Z,8.97
2023-03-20T16:18:48.306Z,7.82
2023-03-20T16:21:54.544Z,8.15
2023-03-20T16:24:28.139Z,9.50
2023-03-20T16:26:55.518Z,7.82
2023-03-20T16:29:24.276Z,9.27
2023-03-20T16:31:58.573Z,8.38
2023-03-20T16:34:33.560Z,6.10
2023-03-20T16:37:06.035Z,4.88
2023-03-20T16:42:20.607Z,7.07
2023-03-20T16:44:47.424Z,5.50
2023-03-20T16:47:32.990Z,4.30
2023-03-20T16:50:30.699Z,5.93
2023-03-20T16:52:59.535Z,7.45
2023-03-20T16:55:32.006Z,8.20
2023-03-20T17:00:33.061Z,5.18
2023-03-20T17:03:15.234Z,7.78
2023-03-20T17:05:53.577Z,4.35
2023-03-20T17:08:29.936Z,7.40
2023-03-20T17:10:59.944Z,6.70
2023-03-20T17:13:26.805Z,4.93
2023-03-20T17:15:54.480Z,3.65
2023-03-20T17:18:21.180Z,3.78
2023-03-20T17:20:47.826Z,6.20
2023-03-20T17:23:19.369Z,11.05
2023-03-20T17:25:46.246Z,6.27
2023-03-20T17:28:20.530Z,7.30
2023-03-20T17:30:49.135Z,7.80
2023-03-20T17:33:17.183Z,4.30
2023-03-20T17:35:44.066Z,8.80
2023-03-20T17:38:16.978Z,5.13
2023-03-20T17:40:44.743Z,5.60
2023-03-20T17:43:13.107Z,5.25
2023-03-20T17:45:40.797Z,8.80
2023-03-20T17:48:15.685Z,7.25
2023-03-20T17:50:44.578Z,6.55
2023-03-20T17:53:16.721Z,6.40
2023-03-20T17:55:43.497Z,5.85
2023-03-20T17:58:15.016Z,7.28
2023-03-20T18:00:41.717Z,6.22
2023-03-20T18:03:08.347Z,6.35
2023-03-20T18:05:39.373Z,13.00
2023-03-20T18:08:12.587Z,8.75
2023-03-20T18:10:39.484Z,9.68
2023-03-20T18:13:06.323Z,7.10
2023-03-20T18:15:32.978Z,9.90
2023-03-20T18:17:59.572Z,11.30
2023-03-20T18:20:32.194Z,10.07
2023-03-20T18:22:58.736Z,10.60
2023-03-20T18:25:26.056Z,8.35
2023-03-20T18:27:53.553Z,8.05
2023-03-20T18:30:23.342Z,9.13
2023-03-20T18:32:50.485Z,8.63
2023-03-20T18:35:17.664Z,15.93
2023-03-20T18:37:44.606Z,14.68
2023-03-20T18:40:21.613Z,10.40
2023-03-20T18:42:48.399Z,9.15
2023-03-20T18:45:15.335Z,9.55
2023-03-20T18:47:41.943Z,27.67
2023-03-20T18:50:29.247Z,26.48
2023-03-20T18:52:57.266Z,12.75
2023-03-20T18:55:26.164Z,14.57
2023-03-20T18:57:53.040Z,19.20
2023-03-20T19:00:21.309Z,14.00
2023-03-20T19:02:49.667Z,13.98
2023-03-20T19:05:18.218Z,12.40
2023-03-20T19:07:48.466Z,14.60
2023-03-20T19:10:43.866Z,48.17
2023-03-20T19:13:15.909Z,50.03
2023-03-20T19:15:43.601Z,40.05
2023-03-20T19:18:27.075Z,31.15
2023-03-20T19:20:56.063Z,23.33
2023-03-20T19:23:24.927Z,27.50
2023-03-20T19:25:57.444Z,24.40
2023-03-20T19:31:08.279Z,18.50
2023-03-20T19:33:35.450Z,17.55
2023-03-20T19:36:04.324Z,16.30
2023-03-20T19:38:32.139Z,15.15
2023-03-20T19:40:59.814Z,20.73
2023-03-20T19:43:28.805Z,23.30
2023-03-20T19:45:58.752Z,15.30
2023-03-20T19:48:50.448Z,21.25
2023-03-20T19:51:26.412Z,16.48
2023-03-20T19:53:54.067Z,17.67
2023-03-20T19:56:23.083Z,15.07
2023-03-20T19:58:50.746Z,12.85
2023-03-20T20:01:23.309Z,13.48
2023-03-20T20:03:51.096Z,13.68
2023-03-20T20:06:20.153Z,14.60
2023-03-20T20:08:49.583Z,13.25
2023-03-20T20:11:20.962Z,15.20
2023-03-20T20:16:35.944Z,15.48
2023-03-20T20:19:02.792Z,19.98
2023-03-20T20:24:18.816Z,19.33
2023-03-20T20:27:03.406Z,24.17
2023-03-20T20:29:34.135Z,19.23
2023-03-20T20:32:00.936Z,15.43
2023-03-20T20:40:02.006Z,14.52
2023-03-20T20:42:28.646Z,18.23
2023-03-20T20:44:55.487Z,11.93
2023-03-20T20:47:22.193Z,14.90
2023-03-20T20:49:49.195Z,13.85
2023-03-20T20:52:16.120Z,16.38
2023-03-20T20:54:42.822Z,11.52
2023-03-20T20:57:10.899Z,12.70
2023-03-20T20:59:38.221Z,12.80
2023-03-20T21:02:12.040Z,11.82
2023-03-20T21:04:42.633Z,14.35
2023-03-20T21:07:13.455Z,10.60
2023-03-20T21:09:40.871Z,9.82
2023-03-20T21:12:10.415Z,9.65
2023-03-20T21:14:37.865Z,13.45
2023-03-20T21:17:06.035Z,12.27
2023-03-20T21:19:38.729Z,9.15
2023-03-20T21:24:34.678Z,14.38
2023-03-20T21:27:08.074Z,11.75
2023-03-20T21:29:34.824Z,10.52
2023-03-20T21:32:01.657Z,9.65
2023-03-20T21:34:29.148Z,11.35
2023-03-20T21:36:57.428Z,7.82
2023-03-20T21:39:24.643Z,10.75
2023-03-20T21:41:51.306Z,9.15
2023-03-20T21:44:24.648Z,9.85
2023-03-20T21:50:42.146Z,9.73
2023-03-20T21:53:13.442Z,10.18
2023-03-20T22:01:39.628Z,18.35
2023-03-20T22:07:24.184Z,13.05
2023-03-20T22:15:34.095Z,8.00
2023-03-20T22:32:27.829Z,9.25
2023-03-20T22:35:15.782Z,6.03
2023-03-20T22:43:31.831Z,9.90
2023-03-20T22:45:38.411Z,6.95
2023-03-20T22:48:10.842Z,7.63
2023-03-20T22:50:38.871Z,7.53
2023-03-20T22:53:06.109Z,12.75
2023-03-20T22:55:32.797Z,6.03
2023-03-20T22:58:06.887Z,5.35
2023-03-20T23:00:35.747Z,5.00
2023-03-20T23:03:15.610Z,5.90
2023-03-20T23:05:47.240Z,8.07
2023-03-20T23:08:13.897Z,5.03
2023-03-20T23:10:45.950Z,9.30
2023-03-20T23:13:13.244Z,4.38
2023-03-20T23:15:39.893Z,8.40
2023-03-20T23:18:06.676Z,5.32
2023-03-20T23:20:33.503Z,4.07
2023-03-20T23:23:00.255Z,6.05
2023-03-20T23:25:38.321Z,7.47
2023-03-20T23:28:07.332Z,7.00
2023-03-20T23:30:44.257Z,13.20
2023-03-20T23:33:15.000Z,10.32
2023-03-20T23:35:41.714Z,5.47
2023-03-20T23:38:08.407Z,4.72
2023-03-20T23:40:35.610Z,8.55
2023-03-20T23:43:02.399Z,4.60
2023-03-20T23:45:29.000Z,3.67
2023-03-20T23:47:55.753Z,5.80
2023-03-20T23:50:42.612Z,3.75
2023-03-20T23:53:19.915Z,9.25
2023-03-20T23:55:49.880Z,3.42
2023-03-20T23:58:16.930Z,3.55
